Impacts TAF Board
For situational awareness. Not to be used for flight planning purposes.
IDs:

KMOB - Mobile Rgnl, AL, US

Issued at 1122 UTC 17 Dec 2018
Updated at 1242 UTC 17 Dec 2018
Potential Impact None Slight Moderate High
Time1156Z 17/13Z 17/14Z 17/15Z 17/16Z 17/17Z 17/18Z 17/19Z 17/20Z 17/21Z 17/22Z 17/23Z 18/00Z 18/01Z>>
Type OBS PRVL PRVL PRVL PRVL PRVL PRVL PRVL PRVL PRVL PRVL PRVL PRVL PRVL
VIS 7 >6 >6 >6 >6 >6 >6 >6 >6 >6 >6 >6 >6 >6
CIG 220 200 200 200 200 200 200 200 200 200 200 200 200 200
Cover BKN BKN BKN BKN BKN BKN BKN BKN BKN BKN BKN BKN BKN BKN
FltCat VFR VFR VFR VFR VFR VFR VFR VFR VFR VFR VFR VFR VFR VFR
WX -- -- -- -- -- -- -- -- -- -- -- -- -- --
WDir 360 360 360 10 10 10 10 10 10 10 10 10 10 10
WSpd 5 5 5 6 6 6 6 6 6 6 6 6 6 6
WGst -- -- -- -- -- -- -- -- -- -- -- -- -- --
Raw TAF
KMOB 171122Z 1712/1812 36005KT P6SM BKN200
  FM171500 01006KT P6SM BKN200
  FM180300 VRB03KT 5SM BR BKN250


Raw METAR
KMOB 171156Z 36005KT 7SM BKN220 09/08 A3025 RMK AO2 SLP242 T00940083 10094 20078 53005 $
KMOB 171056Z AUTO 36005KT 10SM CLR 09/08 A3023 RMK AO2 SLP237 T00940083 $
KMOB 170956Z AUTO 35007KT 10SM CLR 09/08 A3022 RMK AO2 SLP232 T00940083 $

METAR Board
Radar Display
Forecast Discussion
For situational awareness. Not to be used for flight planning purposes.